M I D A S
Marine Information and Data Acquisition System
Tripno 1406 of the Zeeleeuw from 2007-09-11 08:00:00 to 2007-09-11 17:00:00
Back to CruiseResearch ActivitiesStationsMapUnderway DataData graphs

EquipmentUnitsComments
TimeDGPSUTC
LatitudeDGPSDM.mWGS84
LongitudeDGPSDM.mWGS84
SpeedMeteo Stationm/sRelative wind speed
DirectionMeteo StationdegRelative wind direction
TemperatureMeteo Stationdeg CelciusAir temperature
PressureMeteo StationPaAtmospheric pressure
HumidityMeteo Station%Relative humidity
Missing or incorrect values are displayed as -999
Metereological data collected by the RV Zeeleeuw from 2007-09-11 08:00:00 to 2007-09-11 17:00:00
Time Latitude Longitude Speed Direction Temperature Pressure Humidity
2007-09-11 08:01 51°15.117 2°52.67 13.3 279 14.9 102240 84
2007-09-11 08:02 51°15.187 2°52.35 14.4 352 15 102240 83
2007-09-11 08:03 51°15.247 2°52.017 13 348 15 102240 83
2007-09-11 08:04 51°15.3 2°51.685 14.3 352 15.1 102220 81
2007-09-11 08:05 51°15.358 2°51.353 13 281 15.1 102240 80
2007-09-11 08:06 51°15.413 2°51.022 13.5 350 15.2 102240 80
2007-09-11 08:07 51°15.477 2°50.7 14.8 280 15.2 102220 80
2007-09-11 08:08 51°15.559 2°50.396 16.7 283 15.2 102240 80
2007-09-11 08:09 51°15.647 2°50.116 16.4 281 15.2 102210 82
2007-09-11 08:10 51°15.747 2°49.858 15.4 284 15.1 102220 82
2007-09-11 08:11 51°15.854 2°49.601 18.3 281 15 102250 83
2007-09-11 08:12 51°15.958 2°49.34 18.1 279 14.9 102240 83
2007-09-11 08:13 51°16.056 2°49.068 15.4 352 14.9 102240 82
2007-09-11 08:14 51°16.054 2°48.836 9.2 7 14.8 102270 80
2007-09-11 08:15 51°16.017 2°48.68 7.6 4 14.9 102270 81
2007-09-11 08:16 51°15.985 2°48.578 12.8 10 14.9 102290 81
2007-09-11 08:17 51°15.956 2°48.513 11.3 13 14.8 102290 81
2007-09-11 08:18 51°15.927 2°48.468 12.5 14 14.9 102300 82
2007-09-11 08:19 51°15.902 2°48.433 9.4 17 15 102300 83
2007-09-11 08:20 51°15.875 2°48.404 10.5 17 15.2 102320 85
2007-09-11 08:21 51°15.849 2°48.383 8.6 25 15 102310 82
2007-09-11 08:22 51°15.822 2°48.36 9.6 19 15 102320 82
2007-09-11 08:23 51°15.79 2°48.293 7.3 5 15 102300 82
2007-09-11 08:24 51°15.768 2°48.219 9.2 -999 15 102310 82
2007-09-11 08:25 51°15.764 2°48.119 10.2 279 15 102320 82
2007-09-11 08:26 51°15.77 2°48.036 4.4 283 15 102280 81
2007-09-11 08:27 51°15.776 2°47.953 10.3 285 15 102280 81
2007-09-11 08:28 51°15.787 2°47.862 8 280 15.1 102300 83
2007-09-11 08:29 51°15.801 2°47.76 10.3 281 15.1 102300 83
2007-09-11 08:30 51°15.813 2°47.638 9.3 349 15.1 102300 83
2007-09-11 08:31 51°15.811 2°47.53 9.8 360 15.1 102280 83
2007-09-11 08:32 51°15.802 2°47.438 10 357 15.1 102320 83
2007-09-11 08:33 51°15.792 2°47.339 10.7 1 15 102330 82
2007-09-11 08:34 51°15.786 2°47.22 10.1 18 15.2 102300 85
2007-09-11 08:35 51°15.78 2°47.106 9.8 15 15.3 102330 86
2007-09-11 08:36 51°15.765 2°47.002 8.5 9 15.1 102330 86
2007-09-11 08:37 51°15.752 2°46.889 9.9 23 15 102330 88
2007-09-11 08:38 51°15.736 2°46.785 10.9 24 14.9 102330 89
2007-09-11 08:39 51°15.719 2°46.676 10.4 20 14.9 102340 90
2007-09-11 08:40 51°15.705 2°46.56 9.8 19 14.8 102340 91
2007-09-11 08:41 51°15.693 2°46.454 9.9 21 14.8 102350 91
2007-09-11 08:42 51°15.678 2°46.351 12.1 21 14.7 102330 91
2007-09-11 08:43 51°15.66 2°46.242 10 24 14.6 102360 91
2007-09-11 08:44 51°15.63 2°46.132 11.3 30 14.6 102340 92
2007-09-11 08:45 51°15.596 2°46.03 11.3 33 14.6 102350 92
2007-09-11 08:46 51°15.563 2°45.926 9.9 35 14.6 102340 92
2007-09-11 08:47 51°15.528 2°45.82 9.6 35 14.5 102350 91
2007-09-11 08:48 51°15.492 2°45.719 8.8 28 14.5 102350 91
2007-09-11 08:49 51°15.453 2°45.617 10.3 34 14.6 102360 93
2007-09-11 08:50 51°15.413 2°45.515 10.4 32 14.5 102350 91
2007-09-11 08:51 51°15.378 2°45.411 8.2 34 14.4 102360 91
2007-09-11 08:52 51°15.341 2°45.308 7.2 32 14.3 102350 91
2007-09-11 08:53 51°15.304 2°45.215 8.6 39 14.4 102370 92
2007-09-11 08:54 51°15.268 2°45.112 7.9 30 14.4 102350 92
2007-09-11 08:55 51°15.231 2°45.005 8.7 34 14.5 102370 93
2007-09-11 08:56 51°15.192 2°44.904 10.2 32 14.5 102380 92
2007-09-11 08:57 51°15.153 2°44.806 7.8 35 14.5 102370 92
2007-09-11 08:58 51°15.107 2°44.691 9.1 33 14.5 102370 92
2007-09-11 08:59 51°15.069 2°44.593 9.4 36 14.5 102370 92
2007-09-11 09:00 51°15.031 2°44.488 8.1 34 14.4 102370 92
2007-09-11 09:01 51°14.987 2°44.377 7.2 37 14.3 102360 92
2007-09-11 09:02 51°14.948 2°44.276 8 32 14.4 102360 93
2007-09-11 09:03 51°14.919 2°44.191 8 28 14.4 102370 91
2007-09-11 09:04 51°14.896 2°44.115 9.3 25 14.4 102370 92
2007-09-11 09:05 51°14.88 2°44.041 9.2 24 14.4 102360 91
2007-09-11 09:06 51°14.865 2°43.979 8.3 20 14.5 102360 92
2007-09-11 09:07 51°14.844 2°43.933 7.9 24 14.5 102380 91
2007-09-11 09:08 51°14.823 2°43.896 8 23 14.5 102370 90
2007-09-11 09:09 51°14.799 2°43.863 8.4 24 14.6 102360 90
2007-09-11 09:10 51°14.773 2°43.835 8.2 31 14.5 102380 89
2007-09-11 09:11 51°14.747 2°43.812 8.4 36 14.6 102350 89
2007-09-11 09:12 51°14.723 2°43.791 9.1 30 14.6 102350 88
2007-09-11 09:13 51°14.697 2°43.757 8.8 23 14.6 102350 88
2007-09-11 09:14 51°14.711 2°43.619 11.4 357 14.7 102360 88
2007-09-11 09:15 51°14.79 2°43.425 11 358 14.7 102320 87
2007-09-11 09:16 51°14.887 2°43.202 13.1 352 14.7 102330 87
2007-09-11 09:17 51°14.979 2°42.969 13.6 356 14.6 102310 87
2007-09-11 09:18 51°15.071 2°42.747 12.8 352 14.6 102320 88
2007-09-11 09:19 51°15.164 2°42.522 13.4 280 14.6 102310 90
2007-09-11 09:20 51°15.257 2°42.298 15.9 352 14.6 102310 91
2007-09-11 09:21 51°15.345 2°42.08 14.7 351 14.5 102320 91
2007-09-11 09:22 51°15.443 2°41.872 14.9 349 14.4 102320 91
2007-09-11 09:23 51°15.547 2°41.682 14.3 353 14.3 102350 91
2007-09-11 09:24 51°15.653 2°41.488 15.5 348 14.4 102330 91
2007-09-11 09:25 51°15.765 2°41.285 14.1 280 14.3 102350 89
2007-09-11 09:26 51°15.87 2°41.094 16.1 347 14.4 102320 88
2007-09-11 09:27 51°15.971 2°40.899 14.6 283 14.4 102330 86
2007-09-11 09:28 51°16.084 2°40.712 14.8 347 14.5 102320 85
2007-09-11 09:29 51°16.195 2°40.533 15.1 282 14.6 102350 84
2007-09-11 09:30 51°16.311 2°40.35 16 281 14.6 102330 84
2007-09-11 09:31 51°16.434 2°40.175 15.7 283 14.7 102360 83
2007-09-11 09:32 51°16.558 2°39.996 13.2 280 14.7 102340 82
2007-09-11 09:33 51°16.668 2°39.823 13.6 282 14.8 102340 83
2007-09-11 09:34 51°16.784 2°39.656 14.4 279 14.8 102340 83
2007-09-11 09:35 51°16.903 2°39.489 14.6 283 14.8 102360 82
2007-09-11 09:36 51°17.025 2°39.325 13.4 280 14.7 102340 81
2007-09-11 09:37 51°17.149 2°39.163 13.1 286 14.8 102340 81
2007-09-11 09:38 51°17.233 2°39.04 10.3 281 14.8 102360 81
2007-09-11 09:39 51°17.286 2°38.943 11.3 282 14.8 102370 80
2007-09-11 09:40 51°17.332 2°38.851 10.5 285 14.8 102380 80
2007-09-11 09:41 51°17.354 2°38.748 10.6 355 14.9 102390 81
2007-09-11 09:42 51°17.347 2°38.68 7.4 3 14.8 102390 79
2007-09-11 09:43 51°17.325 2°38.642 10.5 15 14.9 102380 78
2007-09-11 09:44 51°17.3 2°38.613 7.9 22 14.9 102380 78
2007-09-11 09:45 51°17.277 2°38.592 7.3 23 14.8 102380 78
2007-09-11 09:46 51°17.253 2°38.575 8 26 14.9 102390 77
2007-09-11 09:47 51°17.227 2°38.531 9.5 19 15 102390 77
2007-09-11 09:48 51°17.208 2°38.456 10.4 8 15.1 102390 78
2007-09-11 09:49 51°17.197 2°38.374 9.7 1 15.2 102400 79
2007-09-11 09:50 51°17.207 2°38.275 11.4 281 15.2 102380 80
2007-09-11 09:51 51°17.23 2°38.191 10.9 282 15.1 102370 79
2007-09-11 09:52 51°17.252 2°38.094 10.3 280 15.1 102360 80
2007-09-11 09:53 51°17.264 2°38.001 10.4 279 14.9 102380 79
2007-09-11 09:54 51°17.274 2°37.898 10.7 354 14.8 102370 79
2007-09-11 09:55 51°17.272 2°37.801 10.2 357 14.9 102370 81
2007-09-11 09:56 51°17.259 2°37.712 8.9 6 14.7 102400 79
2007-09-11 09:57 51°17.247 2°37.614 10 358 14.9 102400 83
2007-09-11 09:58 51°17.231 2°37.506 8.7 359 14.8 102400 80
2007-09-11 09:59 51°17.213 2°37.396 8.3 4 14.7 102380 79
2007-09-11 10:00 51°17.187 2°37.299 8 8 14.8 102390 79
2007-09-11 10:01 51°17.161 2°37.206 8.9 10 14.9 102400 79
2007-09-11 10:02 51°17.13 2°37.114 8.4 7 14.9 102410 76
2007-09-11 10:03 51°17.09 2°37.018 8.7 10 15.1 102400 79
2007-09-11 10:04 51°17.04 2°36.929 9.8 17 14.9 102400 75
2007-09-11 10:05 51°16.99 2°36.849 8.9 19 14.9 102400 76
2007-09-11 10:06 51°16.943 2°36.771 7.5 18 14.9 102410 75
2007-09-11 10:07 51°16.894 2°36.689 9.3 18 15.1 102400 76
2007-09-11 10:08 51°16.845 2°36.605 8.5 20 15.1 102400 75
2007-09-11 10:09 51°16.796 2°36.52 6.8 23 15.1 102410 75
2007-09-11 10:10 51°16.746 2°36.437 8.4 21 15.2 102410 76
2007-09-11 10:11 51°16.692 2°36.359 8.2 24 15.2 102420 75
2007-09-11 10:12 51°16.637 2°36.281 7.2 22 15.2 102420 76
2007-09-11 10:13 51°16.581 2°36.207 6.3 28 15.1 102420 76
2007-09-11 10:14 51°16.527 2°36.132 7.4 24 15.2 102420 78
2007-09-11 10:15 51°16.474 2°36.06 5.5 24 15.2 102430 78
2007-09-11 10:16 51°16.421 2°35.987 6.7 24 15.2 102420 79
2007-09-11 10:17 51°16.37 2°35.91 6.9 24 15.1 102420 78
2007-09-11 10:18 51°16.315 2°35.834 7.1 20 15.3 102410 80
2007-09-11 10:19 51°16.264 2°35.762 7 26 15.1 102430 76
2007-09-11 10:20 51°16.212 2°35.689 9.7 20 15.2 102420 76
2007-09-11 10:21 51°16.16 2°35.617 8.5 24 15.2 102420 74
2007-09-11 10:22 51°16.109 2°35.547 7.3 16 15.3 102420 75
2007-09-11 10:23 51°16.057 2°35.481 7.7 16 15.4 102410 74
2007-09-11 10:24 51°16.005 2°35.417 7.5 19 15.4 102420 74
2007-09-11 10:25 51°15.955 2°35.353 7.3 21 15.4 102420 75
2007-09-11 10:26 51°15.906 2°35.287 6 20 15.3 102430 73
2007-09-11 10:27 51°15.858 2°35.23 8.4 30 15.4 102420 72
2007-09-11 10:28 51°15.829 2°35.19 8.9 12 15.5 102410 73
2007-09-11 10:29 51°15.804 2°35.147 7.1 18 15.4 102410 70
2007-09-11 10:30 51°15.783 2°35.109 7.6 18 15.5 102400 69
2007-09-11 10:31 51°15.766 2°35.084 8.4 17 15.6 102410 70
2007-09-11 10:32 51°15.751 2°35.069 7.5 16 15.6 102420 71
2007-09-11 10:33 51°15.735 2°35.061 7.8 14 15.6 102400 70
2007-09-11 10:34 51°15.717 2°35.06 7.1 19 15.6 102410 71
2007-09-11 10:35 51°15.7 2°35.066 9.7 21 15.7 102410 72
2007-09-11 10:36 51°15.683 2°35.078 7.2 23 15.6 102410 72
2007-09-11 10:37 51°15.668 2°35.089 6.5 26 15.7 102400 72
2007-09-11 10:38 51°15.653 2°35.1 6.2 29 15.7 102400 70
2007-09-11 10:39 51°15.636 2°35.104 8.9 29 15.8 102410 72
2007-09-11 10:40 51°15.611 2°35.087 8.1 26 15.6 102420 68
2007-09-11 10:41 51°15.554 2°35.036 5.2 38 15.6 102390 67
2007-09-11 10:42 51°15.447 2°35.09 3.1 280 15.6 102410 67
2007-09-11 10:43 51°15.414 2°35.274 6.1 285 15.7 102390 67
2007-09-11 10:44 51°15.372 2°35.481 9.1 285 15.9 102410 69
2007-09-11 10:45 51°15.323 2°35.697 8.8 281 16 102410 69
2007-09-11 10:46 51°15.277 2°35.919 8.9 253 16 102400 68
2007-09-11 10:47 51°15.229 2°36.142 9.2 280 16 102420 68
2007-09-11 10:48 51°15.183 2°36.369 8.8 283 16 102400 69
2007-09-11 10:49 51°15.141 2°36.597 8.4 277 16 102410 69
2007-09-11 10:50 51°15.097 2°36.831 7.6 278 16 102410 68
2007-09-11 10:51 51°15.049 2°37.064 9.9 277 16 102400 69
2007-09-11 10:52 51°14.999 2°37.299 9 283 16 102410 68
2007-09-11 10:53 51°14.949 2°37.536 7.5 278 16 102400 69
2007-09-11 10:54 51°14.9 2°37.771 5.4 278 15.9 102420 68
2007-09-11 10:55 51°14.851 2°38.006 9.9 257 15.9 102410 68
2007-09-11 10:56 51°14.807 2°38.243 7.6 252 16 102390 69
2007-09-11 10:57 51°14.781 2°38.484 7 280 16.1 102390 70
2007-09-11 10:58 51°14.746 2°38.722 7.6 254 16 102390 70
2007-09-11 10:59 51°14.706 2°38.956 9.6 256 16.1 102390 71
2007-09-11 11:00 51°14.669 2°39.194 10.4 258 16 102380 71
2007-09-11 11:01 51°14.632 2°39.429 9.2 257 16 102390 71
2007-09-11 11:02 51°14.595 2°39.666 9.2 260 16 102390 72
2007-09-11 11:03 51°14.559 2°39.907 10.1 280 16 102390 72
2007-09-11 11:04 51°14.521 2°40.148 8.5 253 15.9 102380 73
2007-09-11 11:05 51°14.484 2°40.389 10.5 254 15.9 102380 73
2007-09-11 11:06 51°14.448 2°40.63 9.2 255 15.9 102390 74
2007-09-11 11:07 51°14.414 2°40.872 9.5 252 15.9 102390 75
2007-09-11 11:08 51°14.383 2°41.116 9.2 277 15.8 102390 76
2007-09-11 11:09 51°14.374 2°41.367 11.2 251 15.7 102370 76
2007-09-11 11:10 51°14.365 2°41.616 9.1 282 15.7 102390 77
2007-09-11 11:11 51°14.357 2°41.863 9 251 15.6 102380 77
2007-09-11 11:12 51°14.349 2°42.112 11.3 247 15.6 102380 78
2007-09-11 11:13 51°14.342 2°42.364 8.5 252 15.5 102370 78
2007-09-11 11:14 51°14.333 2°42.614 10.1 249 15.5 102400 79
2007-09-11 11:15 51°14.324 2°42.864 8.3 286 15.4 102380 79
2007-09-11 11:16 51°14.313 2°43.112 8.7 251 15.4 102380 79
2007-09-11 11:17 51°14.308 2°43.361 10 279 15.4 102380 81
2007-09-11 11:18 51°14.301 2°43.61 8.1 246 15.4 102380 79
2007-09-11 11:19 51°14.308 2°43.858 8.8 250 15.4 102380 79
2007-09-11 11:20 51°14.331 2°44.108 10.5 21 15.4 102390 80
2007-09-11 11:21 51°14.351 2°44.359 9.7 282 15.4 102390 80
2007-09-11 11:22 51°14.372 2°44.612 8.9 281 15.4 102380 78
2007-09-11 11:23 51°14.394 2°44.867 9.7 284 15.4 102390 79
2007-09-11 11:24 51°14.413 2°45.121 7.6 244 15.4 102380 76
2007-09-11 11:25 51°14.434 2°45.373 9.1 23 15.5 102380 76
2007-09-11 11:26 51°14.457 2°45.627 11.6 279 15.5 102390 76
2007-09-11 11:27 51°14.48 2°45.884 9.5 22 15.5 102380 74
2007-09-11 11:28 51°14.506 2°46.142 8.3 281 15.6 102380 75
2007-09-11 11:29 51°14.53 2°46.402 10.2 25 15.6 102390 75
2007-09-11 11:30 51°14.556 2°46.664 11.8 286 15.6 102390 74
2007-09-11 11:31 51°14.576 2°46.926 9.1 281 15.6 102380 75
2007-09-11 11:32 51°14.596 2°47.184 11.4 243 15.6 102390 75
2007-09-11 11:33 51°14.614 2°47.443 7.3 284 15.6 102370 75
2007-09-11 11:34 51°14.623 2°47.697 10 21 15.6 102380 76
2007-09-11 11:35 51°14.629 2°47.953 9.3 282 15.5 102390 75
2007-09-11 11:36 51°14.639 2°48.21 8.7 246 15.5 102370 75
2007-09-11 11:37 51°14.652 2°48.463 7.6 279 15.5 102390 75
2007-09-11 11:38 51°14.664 2°48.719 7.1 28 15.6 102390 76
2007-09-11 11:39 51°14.676 2°48.973 9.5 284 15.6 102390 75
2007-09-11 11:40 51°14.686 2°49.225 11.2 279 15.6 102390 75
2007-09-11 11:41 51°14.701 2°49.477 8.9 22 15.7 102390 76
2007-09-11 11:42 51°14.716 2°49.73 8.8 279 15.6 102390 75
2007-09-11 11:43 51°14.73 2°49.983 10.1 246 15.6 102380 76
2007-09-11 11:44 51°14.744 2°50.235 10.5 285 15.6 102390 75
2007-09-11 11:45 51°14.756 2°50.486 8.1 279 15.6 102370 74
2007-09-11 11:46 51°14.767 2°50.738 8.9 24 15.5 102370 74
2007-09-11 11:47 51°14.779 2°50.991 8.5 278 15.6 102390 75
2007-09-11 11:48 51°14.79 2°51.239 7.5 281 15.6 102390 75
2007-09-11 11:49 51°14.801 2°51.451 9 280 15.6 102400 75
2007-09-11 11:50 51°14.806 2°51.577 11.8 284 15.6 102400 75
2007-09-11 11:51 51°14.815 2°51.661 10.6 280 15.6 102390 76
2007-09-11 11:52 51°14.821 2°51.714 9 252 15.6 102390 75
2007-09-11 11:53 51°14.821 2°51.745 5.5 279 15.6 102390 76
2007-09-11 11:54 51°14.822 2°51.776 5.8 265 15.7 102390 76
2007-09-11 11:55 51°14.822 2°51.808 8.2 282 15.6 102400 78
2007-09-11 11:56 51°14.821 2°51.842 6.2 283 15.5 102390 77
2007-09-11 11:57 51°14.821 2°51.876 6.4 285 15.4 102390 78
2007-09-11 11:58 51°14.822 2°51.911 6.7 279 15.4 102390 78
2007-09-11 11:59 51°14.822 2°51.944 8.9 280 15.4 102400 78
2007-09-11 12:00 51°14.823 2°51.977 6 280 15.3 102380 78
2007-09-11 12:01 51°14.823 2°52.009 6.6 279 15.4 102400 79
2007-09-11 12:02 51°14.825 2°52.042 8.4 282 15.4 102400 80
2007-09-11 12:03 51°14.826 2°52.076 7.2 279 15.4 102410 81
2007-09-11 12:04 51°14.827 2°52.111 9.7 284 15.4 102410 80
2007-09-11 12:05 51°14.829 2°52.146 8 278 15.4 102410 80
2007-09-11 12:06 51°14.831 2°52.182 9 283 15.4 102410 81
2007-09-11 12:07 51°14.832 2°52.215 6 279 15.4 102410 80
2007-09-11 12:08 51°14.833 2°52.245 6.2 284 15.5 102400 82
2007-09-11 12:09 51°14.835 2°52.278 7.6 283 15.6 102410 83
2007-09-11 12:10 51°14.835 2°52.313 8.5 280 15.5 102400 80
2007-09-11 12:11 51°14.837 2°52.347 5.4 279 15.6 102400 81
2007-09-11 12:12 51°14.838 2°52.385 7.4 279 15.5 102400 79
2007-09-11 12:13 51°14.84 2°52.421 8 278 15.5 102400 80
2007-09-11 12:14 51°14.841 2°52.459 10.5 281 15.4 102410 79
2007-09-11 12:15 51°14.843 2°52.497 8.5 280 15.4 102400 78
2007-09-11 12:16 51°14.846 2°52.539 7.9 283 15.5 102400 80
2007-09-11 12:17 51°14.85 2°52.61 10.5 284 15.5 102400 78
2007-09-11 12:18 51°14.863 2°52.754 9.5 280 15.6 102400 78
2007-09-11 12:19 51°14.892 2°52.988 11.7 281 15.6 102400 77
2007-09-11 12:20 51°14.914 2°53.29 7.9 278 15.6 102410 76
2007-09-11 12:21 51°14.886 2°53.636 6.6 279 15.6 102400 76
2007-09-11 12:22 51°14.824 2°53.969 6.7 279 15.7 102410 78
2007-09-11 12:23 51°14.752 2°54.293 5.8 286 15.7 102410 76
2007-09-11 12:24 51°14.635 2°54.584 4.5 279 15.7 102420 77
2007-09-11 12:25 51°14.502 2°54.849 3.2 282 15.8 102420 77
2007-09-11 12:26 51°14.366 2°55.104 2.1 287 15.8 102410 76
2007-09-11 12:27 51°14.223 2°55.316 2.1 75 15.9 102420 77
2007-09-11 12:28 51°14.112 2°55.422 2.6 77 16 102420 77
2007-09-11 12:29 51°14.034 2°55.483 4 81 16.1 102430 75
2007-09-11 12:30 51°13.96 2°55.537 3.8 82 16.1 102420 75
2007-09-11 12:31 51°13.878 2°55.594 2.9 81 16.3 102420 76
2007-09-11 12:32 51°13.797 2°55.658 5.1 76 16.1 102420 72
2007-09-11 12:33 51°13.727 2°55.757 6.8 81 15.9 102420 74
2007-09-11 12:34 51°13.677 2°55.864 6.7 77 15.7 102430 74
2007-09-11 12:35 51°13.633 2°55.966 2.3 284 15.7 102430 74
2007-09-11 12:36 51°13.61 2°56.048 6.2 84 15.8 102420 75
2007-09-11 12:37 51°13.602 2°56.091 4.4 284 16 102420 75
2007-09-11 12:38 51°13.599 2°56.098 6 77 16.2 102420 74